sensor_id;sensor_type;location;lat;lon;timestamp;pressure;altitude;pressure_sealevel;temperature;humidity
3796;BME280;1913;50.660;7.834;2023-08-24T00:01:54;61283.88;;;-145.51;100.00
3796;BME280;1913;50.660;7.834;2023-08-24T00:04:20;61283.88;;;-145.51;100.00
3796;BME280;1913;50.660;7.834;2023-08-24T00:06:45;61283.88;;;-145.51;100.00
3796;BME280;1913;50.660;7.834;2023-08-24T00:09:10;61283.88;;;-145.51;100.00
3796;BME280;1913;50.660;7.834;2023-08-24T00:11:36;61283.88;;;-145.51;100.00
3796;BME280;1913;50.660;7.834;2023-08-24T00:14:02;61283.88;;;-145.51;100.00
3796;BME280;1913;50.660;7.834;2023-08-24T00:16:27;61283.88;;;-145.51;100.00
3796;BME280;1913;50.660;7.834;2023-08-24T00:18:53;61283.88;;;-145.51;100.00
3796;BME280;1913;50.660;7.834;2023-08-24T00:21:18;61283.88;;;-145.51;100.00
3796;BME280;1913;50.660;7.834;2023-08-24T00:23:48;61283.88;;;-145.51;100.00
3796;BME280;1913;50.660;7.834;2023-08-24T00:26:13;61283.88;;;-145.51;100.00
3796;BME280;1913;50.660;7.834;2023-08-24T00:28:42;61283.88;;;-145.51;100.00
3796;BME280;1913;50.660;7.834;2023-08-24T00:31:07;61283.88;;;-145.51;100.00
3796;BME280;1913;50.660;7.834;2023-08-24T00:33:32;61283.88;;;-145.51;100.00
3796;BME280;1913;50.660;7.834;2023-08-24T00:36:02;61283.88;;;-145.51;100.00
3796;BME280;1913;50.660;7.834;2023-08-24T00:38:27;61283.88;;;-145.51;100.00
3796;BME280;1913;50.660;7.834;2023-08-24T00:40:53;61283.88;;;-145.51;100.00
3796;BME280;1913;50.660;7.834;2023-08-24T00:43:19;61283.88;;;-145.51;100.00
3796;BME280;1913;50.660;7.834;2023-08-24T00:45:50;61283.88;;;-145.51;100.00
3796;BME280;1913;50.660;7.834;2023-08-24T00:48:16;61283.88;;;-145.51;100.00
3796;BME280;1913;50.660;7.834;2023-08-24T00:50:42;61283.88;;;-145.51;100.00
3796;BME280;1913;50.660;7.834;2023-08-24T00:53:07;61283.88;;;-145.51;100.00
3796;BME280;1913;50.660;7.834;2023-08-24T00:55:33;61283.88;;;-145.51;100.00
3796;BME280;1913;50.660;7.834;2023-08-24T00:57:59;61283.88;;;-145.51;100.00
3796;BME280;1913;50.660;7.834;2023-08-24T01:00:25;61283.88;;;-145.51;100.00
3796;BME280;1913;50.660;7.834;2023-08-24T01:02:50;61283.88;;;-145.51;100.00
3796;BME280;1913;50.660;7.834;2023-08-24T01:05:15;61283.88;;;-145.51;100.00
3796;BME280;1913;50.660;7.834;2023-08-24T01:07:41;61283.88;;;-145.51;100.00
3796;BME280;1913;50.660;7.834;2023-08-24T01:10:08;61283.88;;;-145.51;100.00
3796;BME280;1913;50.660;7.834;2023-08-24T01:16:10;61283.88;;;-145.51;100.00
3796;BME280;1913;50.660;7.834;2023-08-24T01:18:39;61283.88;;;-145.51;100.00
3796;BME280;1913;50.660;7.834;2023-08-24T01:21:06;61283.88;;;-145.51;100.00
3796;BME280;1913;50.660;7.834;2023-08-24T01:23:34;61283.88;;;-145.51;100.00
3796;BME280;1913;50.660;7.834;2023-08-24T01:28:30;61283.88;;;-145.51;100.00
3796;BME280;1913;50.660;7.834;2023-08-24T01:30:55;61283.88;;;-145.51;100.00
3796;BME280;1913;50.660;7.834;2023-08-24T01:33:21;61283.88;;;-145.51;100.00
3796;BME280;1913;50.660;7.834;2023-08-24T01:35:47;61283.88;;;-145.51;100.00
3796;BME280;1913;50.660;7.834;2023-08-24T01:38:12;61283.88;;;-145.51;100.00
3796;BME280;1913;50.660;7.834;2023-08-24T01:41:01;61283.88;;;-145.51;100.00
3796;BME280;1913;50.660;7.834;2023-08-24T01:43:30;61283.88;;;-145.51;100.00
3796;BME280;1913;50.660;7.834;2023-08-24T01:46:00;61283.88;;;-145.51;100.00
3796;BME280;1913;50.660;7.834;2023-08-24T01:48:29;61283.88;;;-145.51;100.00
3796;BME280;1913;50.660;7.834;2023-08-24T01:50:55;61283.88;;;-145.51;100.00
3796;BME280;1913;50.660;7.834;2023-08-24T01:53:22;61283.88;;;-145.51;100.00
3796;BME280;1913;50.660;7.834;2023-08-24T01:55:47;61283.88;;;-145.51;100.00
3796;BME280;1913;50.660;7.834;2023-08-24T01:58:13;61283.88;;;-145.51;100.00
3796;BME280;1913;50.660;7.834;2023-08-24T02:00:38;61283.88;;;-145.51;100.00
3796;BME280;1913;50.660;7.834;2023-08-24T02:03:04;61283.88;;;-145.51;100.00
3796;BME280;1913;50.660;7.834;2023-08-24T02:05:29;61283.88;;;-145.51;100.00
3796;BME280;1913;50.660;7.834;2023-08-24T02:07:55;61283.88;;;-145.51;100.00
3796;BME280;1913;50.660;7.834;2023-08-24T02:10:20;61283.88;;;-145.51;100.00
3796;BME280;1913;50.660;7.834;2023-08-24T02:12:46;61283.88;;;-145.51;100.00
3796;BME280;1913;50.660;7.834;2023-08-24T02:15:11;61283.88;;;-145.51;100.00
3796;BME280;1913;50.660;7.834;2023-08-24T02:17:37;61283.88;;;-145.51;100.00
3796;BME280;1913;50.660;7.834;2023-08-24T02:20:02;61283.88;;;-145.51;100.00
3796;BME280;1913;50.660;7.834;2023-08-24T02:22:29;61283.88;;;-145.51;100.00
3796;BME280;1913;50.660;7.834;2023-08-24T02:24:55;61283.88;;;-145.51;100.00
3796;BME280;1913;50.660;7.834;2023-08-24T02:27:20;61283.88;;;-145.51;100.00
3796;BME280;1913;50.660;7.834;2023-08-24T02:29:46;61283.88;;;-145.51;100.00
3796;BME280;1913;50.660;7.834;2023-08-24T02:32:11;61283.88;;;-145.51;100.00
3796;BME280;1913;50.660;7.834;2023-08-24T02:34:37;61283.88;;;-145.51;100.00
3796;BME280;1913;50.660;7.834;2023-08-24T02:37:02;61283.88;;;-145.51;100.00
3796;BME280;1913;50.660;7.834;2023-08-24T02:39:27;61283.88;;;-145.51;100.00
3796;BME280;1913;50.660;7.834;2023-08-24T02:41:53;61283.88;;;-145.51;100.00
3796;BME280;1913;50.660;7.834;2023-08-24T02:44:18;61283.88;;;-145.51;100.00
3796;BME280;1913;50.660;7.834;2023-08-24T02:46:44;61283.88;;;-145.51;100.00
3796;BME280;1913;50.660;7.834;2023-08-24T02:49:09;61283.88;;;-145.51;100.00
3796;BME280;1913;50.660;7.834;2023-08-24T02:51:35;61283.88;;;-145.51;100.00
3796;BME280;1913;50.660;7.834;2023-08-24T02:54:00;61283.88;;;-145.51;100.00
3796;BME280;1913;50.660;7.834;2023-08-24T02:56:25;61283.88;;;-145.51;100.00
3796;BME280;1913;50.660;7.834;2023-08-24T02:58:51;61283.88;;;-145.51;100.00
3796;BME280;1913;50.660;7.834;2023-08-24T03:01:17;61283.88;;;-145.51;100.00
3796;BME280;1913;50.660;7.834;2023-08-24T03:03:43;61283.88;;;-145.51;100.00
3796;BME280;1913;50.660;7.834;2023-08-24T03:06:08;61283.88;;;-145.51;100.00
3796;BME280;1913;50.660;7.834;2023-08-24T03:08:35;61283.88;;;-145.51;100.00
3796;BME280;1913;50.660;7.834;2023-08-24T03:11:01;61283.88;;;-145.51;100.00
3796;BME280;1913;50.660;7.834;2023-08-24T03:13:27;61283.88;;;-145.51;100.00
3796;BME280;1913;50.660;7.834;2023-08-24T03:15:53;61283.88;;;-145.51;100.00
3796;BME280;1913;50.660;7.834;2023-08-24T03:18:19;61283.88;;;-145.51;100.00
3796;BME280;1913;50.660;7.834;2023-08-24T03:20:45;61283.88;;;-145.51;100.00
3796;BME280;1913;50.660;7.834;2023-08-24T03:23:11;61283.88;;;-145.51;100.00
3796;BME280;1913;50.660;7.834;2023-08-24T03:25:38;61283.88;;;-145.51;100.00
3796;BME280;1913;50.660;7.834;2023-08-24T03:28:04;61283.88;;;-145.51;100.00
3796;BME280;1913;50.660;7.834;2023-08-24T03:30:30;61283.88;;;-145.51;100.00
3796;BME280;1913;50.660;7.834;2023-08-24T03:32:55;61283.88;;;-145.51;100.00
3796;BME280;1913;50.660;7.834;2023-08-24T03:35:21;61283.88;;;-145.51;100.00
3796;BME280;1913;50.660;7.834;2023-08-24T03:37:47;61283.88;;;-145.51;100.00
3796;BME280;1913;50.660;7.834;2023-08-24T03:40:13;61283.88;;;-145.51;100.00
3796;BME280;1913;50.660;7.834;2023-08-24T03:42:38;61283.88;;;-145.51;100.00
3796;BME280;1913;50.660;7.834;2023-08-24T03:45:04;61283.88;;;-145.51;100.00
3796;BME280;1913;50.660;7.834;2023-08-24T03:47:30;61283.88;;;-145.51;100.00
3796;BME280;1913;50.660;7.834;2023-08-24T03:49:55;61283.88;;;-145.51;100.00
3796;BME280;1913;50.660;7.834;2023-08-24T03:52:21;61283.88;;;-145.51;100.00
3796;BME280;1913;50.660;7.834;2023-08-24T03:54:46;61283.88;;;-145.51;100.00
3796;BME280;1913;50.660;7.834;2023-08-24T03:57:12;61283.88;;;-145.51;100.00
3796;BME280;1913;50.660;7.834;2023-08-24T03:59:37;61283.88;;;-145.51;100.00
3796;BME280;1913;50.660;7.834;2023-08-24T04:02:02;61283.88;;;-145.51;100.00
3796;BME280;1913;50.660;7.834;2023-08-24T04:04:29;61283.88;;;-145.51;100.00
3796;BME280;1913;50.660;7.834;2023-08-24T04:06:55;61283.88;;;-145.51;100.00
3796;BME280;1913;50.660;7.834;2023-08-24T04:09:20;61283.88;;;-145.51;100.00
3796;BME280;1913;50.660;7.834;2023-08-24T04:11:46;61283.88;;;-145.51;100.00
3796;BME280;1913;50.660;7.834;2023-08-24T04:14:11;61283.88;;;-145.51;100.00
3796;BME280;1913;50.660;7.834;2023-08-24T04:16:36;61283.88;;;-145.51;100.00
3796;BME280;1913;50.660;7.834;2023-08-24T04:19:02;61283.88;;;-145.51;100.00
3796;BME280;1913;50.660;7.834;2023-08-24T04:21:27;61283.88;;;-145.51;100.00
3796;BME280;1913;50.660;7.834;2023-08-24T04:23:53;61283.88;;;-145.51;100.00
3796;BME280;1913;50.660;7.834;2023-08-24T04:26:18;61283.88;;;-145.51;100.00
3796;BME280;1913;50.660;7.834;2023-08-24T04:28:44;61283.88;;;-145.51;100.00
3796;BME280;1913;50.660;7.834;2023-08-24T04:31:09;61283.88;;;-145.51;100.00
3796;BME280;1913;50.660;7.834;2023-08-24T04:33:35;61283.88;;;-145.51;100.00
3796;BME280;1913;50.660;7.834;2023-08-24T04:36:01;61283.88;;;-145.51;100.00
3796;BME280;1913;50.660;7.834;2023-08-24T04:38:28;61283.88;;;-145.51;100.00
3796;BME280;1913;50.660;7.834;2023-08-24T04:40:55;61283.88;;;-145.51;100.00
3796;BME280;1913;50.660;7.834;2023-08-24T04:43:22;61283.88;;;-145.51;100.00
3796;BME280;1913;50.660;7.834;2023-08-24T04:45:52;61283.88;;;-145.51;100.00
3796;BME280;1913;50.660;7.834;2023-08-24T04:48:25;152572.63;;;18.35;100.00
3796;BME280;1913;50.660;7.834;2023-08-24T04:50:51;152523.41;;;18.15;100.00
3796;BME280;1913;50.660;7.834;2023-08-24T04:53:19;152519.59;;;18.13;100.00
3796;BME280;1913;50.660;7.834;2023-08-24T04:55:45;152491.81;;;18.02;100.00
3796;BME280;1913;50.660;7.834;2023-08-24T04:58:11;152488.03;;;18.01;100.00
3796;BME280;1913;50.660;7.834;2023-08-24T05:00:37;152481.72;;;17.98;100.00
3796;BME280;1913;50.660;7.834;2023-08-24T05:03:04;152481.72;;;17.98;100.00
3796;BME280;1913;50.660;7.834;2023-08-24T05:05:33;152501.91;;;18.06;100.00
3796;BME280;1913;50.660;7.834;2023-08-24T05:08:00;152490.56;;;18.02;100.00
3796;BME280;1913;50.660;7.834;2023-08-24T05:10:30;152484.22;;;17.99;100.00
3796;BME280;1913;50.660;7.834;2023-08-24T05:12:55;152494.31;;;18.03;100.00
3796;BME280;1913;50.660;7.834;2023-08-24T05:15:21;152461.53;;;17.90;100.00
3796;BME280;1913;50.660;7.834;2023-08-24T05:17:46;152423.56;;;17.75;100.00
3796;BME280;1913;50.660;7.834;2023-08-24T05:20:11;152467.81;;;17.92;100.00
3796;BME280;1913;50.660;7.834;2023-08-24T05:22:37;152465.28;;;17.91;100.00
3796;BME280;1913;50.660;7.834;2023-08-24T05:25:03;152491.81;;;18.02;100.00
3796;BME280;1913;50.660;7.834;2023-08-24T05:27:30;152496.88;;;18.04;100.00
3796;BME280;1913;50.660;7.834;2023-08-24T05:29:55;152474.13;;;17.95;100.00
3796;BME280;1913;50.660;7.834;2023-08-24T05:32:20;152458.97;;;17.89;100.00
3796;BME280;1913;50.660;7.834;2023-08-24T05:34:46;152446.38;;;17.84;100.00
3796;BME280;1913;50.660;7.834;2023-08-24T05:37:11;152445.13;;;17.83;100.00
3796;BME280;1913;50.660;7.834;2023-08-24T05:39:37;152418.56;;;17.73;100.00
3796;BME280;1913;50.660;7.834;2023-08-24T05:42:03;152410.97;;;17.69;100.00
3796;BME280;1913;50.660;7.834;2023-08-24T05:44:29;152373.13;;;17.54;100.00
3796;BME280;1913;50.660;7.834;2023-08-24T05:46:54;152340.28;;;17.41;100.00
3796;BME280;1913;50.660;7.834;2023-08-24T05:49:20;152322.63;;;17.34;100.00
3796;BME280;1913;50.660;7.834;2023-08-24T05:51:45;152298.63;;;17.24;100.00
3796;BME280;1913;50.660;7.834;2023-08-24T05:54:10;152270.88;;;17.13;100.00
3796;BME280;1913;50.660;7.834;2023-08-24T05:56:36;152273.38;;;17.14;100.00
3796;BME280;1913;50.660;7.834;2023-08-24T05:59:01;152275.94;;;17.15;100.00
3796;BME280;1913;50.660;7.834;2023-08-24T06:01:27;152277.19;;;17.15;100.00
3796;BME280;1913;50.660;7.834;2023-08-24T06:03:52;152284.78;;;17.18;100.00
3796;BME280;1913;50.660;7.834;2023-08-24T06:06:17;152302.44;;;17.26;100.00
3796;BME280;1913;50.660;7.834;2023-08-24T06:08:43;152304.94;;;17.27;100.00
3796;BME280;1913;50.660;7.834;2023-08-24T06:11:08;152304.94;;;17.27;100.00
3796;BME280;1913;50.660;7.834;2023-08-24T06:13:34;152321.38;;;17.33;100.00
3796;BME280;1913;50.660;7.834;2023-08-24T06:15:59;152328.94;;;17.36;100.00
3796;BME280;1913;50.660;7.834;2023-08-24T06:18:25;152339.03;;;17.40;100.00
3796;BME280;1913;50.660;7.834;2023-08-24T06:20:50;152356.69;;;17.47;100.00
3796;BME280;1913;50.660;7.834;2023-08-24T06:23:16;152383.22;;;17.58;100.00
3796;BME280;1913;50.660;7.834;2023-08-24T06:25:43;152413.47;;;17.70;100.00
3796;BME280;1913;50.660;7.834;2023-08-24T06:28:08;152443.84;;;17.83;100.00
3796;BME280;1913;50.660;7.834;2023-08-24T06:30:41;152485.47;;;18.00;100.00
3796;BME280;1913;50.660;7.834;2023-08-24T06:33:08;152527.16;;;18.16;100.00
3796;BME280;1913;50.660;7.834;2023-08-24T06:35:33;152568.84;;;18.33;100.00
3796;BME280;1913;50.660;7.834;2023-08-24T06:38:00;152625.66;;;18.56;100.00
3796;BME280;1913;50.660;7.834;2023-08-24T06:40:25;152658.50;;;18.70;100.00
3796;BME280;1913;50.660;7.834;2023-08-24T06:42:51;152700.25;;;18.86;100.00
3796;BME280;1913;50.660;7.834;2023-08-24T06:45:16;152738.16;;;19.02;100.00
3796;BME280;1913;50.660;7.834;2023-08-24T06:47:43;152763.41;;;19.12;100.00
3796;BME280;1913;50.660;7.834;2023-08-24T06:50:09;152813.97;;;19.32;100.00
3796;BME280;1913;50.660;7.834;2023-08-24T06:52:34;152867.03;;;19.54;100.00
3796;BME280;1913;50.660;7.834;2023-08-24T06:55:00;152911.31;;;19.72;100.00
3796;BME280;1913;50.660;7.834;2023-08-24T06:57:25;152954.31;;;19.89;100.00
3796;BME280;1913;50.660;7.834;2023-08-24T06:59:51;152988.44;;;20.03;100.00
3796;BME280;1913;50.660;7.834;2023-08-24T07:02:17;153004.84;;;20.09;100.00
3796;BME280;1913;50.660;7.834;2023-08-24T07:04:43;153033.94;;;20.21;100.00
3796;BME280;1913;50.660;7.834;2023-08-24T07:07:08;153070.59;;;20.36;100.00
3796;BME280;1913;50.660;7.834;2023-08-24T07:09:34;153102.19;;;20.49;100.00
3796;BME280;1913;50.660;7.834;2023-08-24T07:12:01;153131.34;;;20.61;100.00
3796;BME280;1913;50.660;7.834;2023-08-24T07:14:26;153179.41;;;20.80;100.00
3796;BME280;1913;50.660;7.834;2023-08-24T07:16:52;153252.78;;;21.10;100.00
3796;BME280;1913;50.660;7.834;2023-08-24T07:19:17;153308.44;;;21.32;100.00
3796;BME280;1913;50.660;7.834;2023-08-24T07:21:42;153394.53;;;21.67;100.00
3796;BME280;1913;50.660;7.834;2023-08-24T07:24:08;153445.09;;;21.87;100.00
3796;BME280;1913;50.660;7.834;2023-08-24T07:26:33;153522.38;;;22.18;100.00
3796;BME280;1913;50.660;7.834;2023-08-24T07:28:59;153578.03;;;22.41;100.00
3796;BME280;1913;50.660;7.834;2023-08-24T07:31:24;153542.59;;;22.27;100.00
3796;BME280;1913;50.660;7.834;2023-08-24T07:33:50;153557.81;;;22.33;100.00
3796;BME280;1913;50.660;7.834;2023-08-24T07:36:15;153608.44;;;22.53;100.00
3796;BME280;1913;50.660;7.834;2023-08-24T07:38:41;153675.53;;;22.80;100.00
3796;BME280;1913;50.660;7.834;2023-08-24T07:41:06;153769.28;;;23.18;100.00
3796;BME280;1913;50.660;7.834;2023-08-24T07:43:32;153841.47;;;23.47;100.00
3796;BME280;1913;50.660;7.834;2023-08-24T07:45:58;153895.97;;;23.69;100.00
3796;BME280;1913;50.660;7.834;2023-08-24T07:48:24;153918.81;;;23.78;100.00
3796;BME280;1913;50.660;7.834;2023-08-24T07:50:50;154022.72;;;24.20;100.00
3796;BME280;1913;50.660;7.834;2023-08-24T07:53:15;154073.47;;;24.41;100.00
3796;BME280;1913;50.660;7.834;2023-08-24T07:55:42;154141.84;;;24.68;100.00
3796;BME280;1913;50.660;7.834;2023-08-24T07:58:08;154198.91;;;24.91;100.00
3796;BME280;1913;50.660;7.834;2023-08-24T08:00:33;154224.28;;;25.01;100.00
3796;BME280;1913;50.660;7.834;2023-08-24T08:03:00;154405.63;;;25.74;100.00
3796;BME280;1913;50.660;7.834;2023-08-24T08:05:25;154445.00;;;25.90;94.91
3796;BME280;1913;50.660;7.834;2023-08-24T08:07:51;154448.78;;;25.92;96.73
3796;BME280;1913;50.660;7.834;2023-08-24T08:10:16;154552.81;;;26.34;95.89
3796;BME280;1913;50.660;7.834;2023-08-24T08:12:42;154648.03;;;26.72;88.96
3796;BME280;1913;50.660;7.834;2023-08-24T08:15:08;154736.84;;;27.08;88.88
3796;BME280;1913;50.660;7.834;2023-08-24T08:17:34;154721.59;;;27.02;79.05
3796;BME280;1913;50.660;7.834;2023-08-24T08:19:59;154744.41;;;27.11;78.28
3796;BME280;1913;50.660;7.834;2023-08-24T08:22:25;154842.22;;;27.50;83.22
3796;BME280;1913;50.660;7.834;2023-08-24T08:24:51;154900.59;;;27.74;74.51
3796;BME280;1913;50.660;7.834;2023-08-24T08:27:19;154975.56;;;28.04;77.59
3796;BME280;1913;50.660;7.834;2023-08-24T08:29:47;154985.72;;;28.08;69.38
3796;BME280;1913;50.660;7.834;2023-08-24T08:32:12;154868.88;;;27.61;65.43
3796;BME280;1913;50.660;7.834;2023-08-24T08:34:38;154820.63;;;27.41;68.07
3796;BME280;1913;50.660;7.834;2023-08-24T08:37:03;154994.63;;;28.11;70.62
3796;BME280;1913;50.660;7.834;2023-08-24T08:39:29;155021.28;;;28.22;63.76
3796;BME280;1913;50.660;7.834;2023-08-24T08:41:54;154980.63;;;28.06;56.39
3796;BME280;1913;50.660;7.834;2023-08-24T08:44:21;154969.22;;;28.01;59.08
3796;BME280;1913;50.660;7.834;2023-08-24T08:46:49;155102.59;;;28.55;57.74
3796;BME280;1913;50.660;7.834;2023-08-24T08:49:15;154984.47;;;28.07;56.46
3796;BME280;1913;50.660;7.834;2023-08-24T08:51:41;154805.38;;;27.35;57.94
3796;BME280;1913;50.660;7.834;2023-08-24T08:54:07;154892.97;;;27.70;62.58
3796;BME280;1913;50.660;7.834;2023-08-24T08:56:32;154801.59;;;27.34;59.38
3796;BME280;1913;50.660;7.834;2023-08-24T08:58:59;154948.91;;;27.93;57.65
3796;BME280;1913;50.660;7.834;2023-08-24T09:01:26;154881.56;;;27.66;55.14
3796;BME280;1913;50.660;7.834;2023-08-24T09:03:53;154851.13;;;27.54;54.32
3796;BME280;1913;50.660;7.834;2023-08-24T09:06:18;154860.00;;;27.57;62.02
3796;BME280;1913;50.660;7.834;2023-08-24T09:08:44;154912.06;;;27.78;52.10
3796;BME280;1913;50.660;7.834;2023-08-24T09:11:10;154915.91;;;27.80;58.52
3796;BME280;1913;50.660;7.834;2023-08-24T09:13:35;154834.59;;;27.47;53.48
3796;BME280;1913;50.660;7.834;2023-08-24T09:16:07;154833.34;;;27.47;52.08
3796;BME280;1913;50.660;7.834;2023-08-24T09:18:39;154857.44;;;27.56;53.76
3796;BME280;1913;50.660;7.834;2023-08-24T09:21:09;154969.22;;;28.01;53.22
3796;BME280;1913;50.660;7.834;2023-08-24T09:23:34;154868.88;;;27.61;49.65
3796;BME280;1913;50.660;7.834;2023-08-24T09:26:00;155035.22;;;28.28;51.49
3796;BME280;1913;50.660;7.834;2023-08-24T09:28:25;155004.75;;;28.15;49.43
3796;BME280;1913;50.660;7.834;2023-08-24T09:30:54;154997.13;;;28.12;50.18
3796;BME280;1913;50.660;7.834;2023-08-24T09:33:20;154970.47;;;28.02;50.10
3796;BME280;1913;50.660;7.834;2023-08-24T09:35:54;154994.63;;;28.11;55.30
3796;BME280;1913;50.660;7.834;2023-08-24T09:38:27;155007.28;;;28.16;49.27
3796;BME280;1913;50.660;7.834;2023-08-24T09:40:54;155006.03;;;28.16;50.11
3796;BME280;1913;50.660;7.834;2023-08-24T09:43:21;155102.59;;;28.55;53.41
3796;BME280;1913;50.660;7.834;2023-08-24T09:45:54;155115.25;;;28.60;49.03
3796;BME280;1913;50.660;7.834;2023-08-24T09:48:20;155044.09;;;28.31;46.07
3796;BME280;1913;50.660;7.834;2023-08-24T09:50:48;154923.50;;;27.83;45.28
3796;BME280;1913;50.660;7.834;2023-08-24T09:53:23;154842.22;;;27.50;46.53
3796;BME280;1913;50.660;7.834;2023-08-24T09:55:49;154872.69;;;27.62;47.56
3796;BME280;1913;50.660;7.834;2023-08-24T10:03:27;155131.78;;;28.67;46.92
3796;BME280;1913;50.660;7.834;2023-08-24T10:05:54;155265.19;;;29.20;46.11
3796;BME280;1913;50.660;7.834;2023-08-24T10:08:24;155280.47;;;29.26;46.52
3796;BME280;1913;50.660;7.834;2023-08-24T10:10:56;155191.50;;;28.91;45.84
3796;BME280;1913;50.660;7.834;2023-08-24T10:13:41;155055.56;;;28.36;47.60
3796;BME280;1913;50.660;7.834;2023-08-24T10:16:09;155063.25;;;28.39;52.46
3796;BME280;1913;50.660;7.834;2023-08-24T10:18:40;155185.13;;;28.88;51.00
3796;BME280;1913;50.660;7.834;2023-08-24T10:21:07;155030.16;;;28.26;50.85
3796;BME280;1913;50.660;7.834;2023-08-24T10:23:34;154929.81;;;27.85;53.91
3796;BME280;1913;50.660;7.834;2023-08-24T10:26:02;154985.72;;;28.08;57.75
3796;BME280;1913;50.660;7.834;2023-08-24T10:28:34;155031.44;;;28.26;61.12
3796;BME280;1913;50.660;7.834;2023-08-24T10:31:10;154922.25;;;27.82;56.95
3796;BME280;1913;50.660;7.834;2023-08-24T10:33:36;154896.81;;;27.72;62.58
3796;BME280;1913;50.660;7.834;2023-08-24T10:36:05;154910.78;;;27.78;63.67
3796;BME280;1913;50.660;7.834;2023-08-24T10:38:35;154909.53;;;27.77;65.64
3796;BME280;1913;50.660;7.834;2023-08-24T10:41:05;154825.72;;;27.43;68.17
3796;BME280;1913;50.660;7.834;2023-08-24T10:43:37;154880.31;;;27.65;67.09
3796;BME280;1913;50.660;7.834;2023-08-24T10:46:14;154867.56;;;27.60;68.49
3796;BME280;1913;50.660;7.834;2023-08-24T10:51:23;154992.03;;;28.10;70.96
3796;BME280;1913;50.660;7.834;2023-08-24T10:53:53;154992.03;;;28.10;64.75
3796;BME280;1913;50.660;7.834;2023-08-24T10:56:19;155059.34;;;28.37;69.14
3796;BME280;1913;50.660;7.834;2023-08-24T10:58:47;155208.00;;;28.97;65.63
3796;BME280;1913;50.660;7.834;2023-08-24T11:01:33;155181.34;;;28.86;65.13
3796;BME280;1913;50.660;7.834;2023-08-24T11:04:00;155252.50;;;29.15;63.70
3796;BME280;1913;50.660;7.834;2023-08-24T11:06:26;155373.28;;;29.64;59.01
3796;BME280;1913;50.660;7.834;2023-08-24T11:09:06;155164.81;;;28.80;60.82
3796;BME280;1913;50.660;7.834;2023-08-24T11:11:39;155102.59;;;28.55;60.68
3796;BME280;1913;50.660;7.834;2023-08-24T11:14:19;155133.03;;;28.67;62.30
3796;BME280;1913;50.660;7.834;2023-08-24T11:16:50;155265.19;;;29.20;62.87
3796;BME280;1913;50.660;7.834;2023-08-24T11:19:16;155106.38;;;28.56;60.56
3796;BME280;1913;50.660;7.834;2023-08-24T11:21:43;155055.56;;;28.36;65.55
3796;BME280;1913;50.660;7.834;2023-08-24T11:24:09;155031.44;;;28.26;65.27
3796;BME280;1913;50.660;7.834;2023-08-24T11:26:41;155047.94;;;28.33;68.24
3796;BME280;1913;50.660;7.834;2023-08-24T11:29:07;154979.38;;;28.05;64.48
3796;BME280;1913;50.660;7.834;2023-08-24T11:31:34;154863.78;;;27.59;69.54
3796;BME280;1913;50.660;7.834;2023-08-24T11:34:00;155008.56;;;28.17;63.88
3796;BME280;1913;50.660;7.834;2023-08-24T11:36:26;154852.38;;;27.54;74.29
3796;BME280;1913;50.660;7.834;2023-08-24T11:38:57;154868.88;;;27.61;72.92
3796;BME280;1913;50.660;7.834;2023-08-24T11:41:26;154891.72;;;27.70;66.52
3796;BME280;1913;50.660;7.834;2023-08-24T11:43:59;154918.41;;;27.81;64.11
3796;BME280;1913;50.660;7.834;2023-08-24T11:46:29;155044.09;;;28.31;67.31
3796;BME280;1913;50.660;7.834;2023-08-24T11:48:56;154959.06;;;27.97;67.75
3796;BME280;1913;50.660;7.834;2023-08-24T11:51:21;155131.78;;;28.67;65.50
3796;BME280;1913;50.660;7.834;2023-08-24T11:53:47;155050.47;;;28.34;62.54
3796;BME280;1913;50.660;7.834;2023-08-24T11:56:14;155144.50;;;28.72;64.69
3796;BME280;1913;50.660;7.834;2023-08-24T11:58:43;155178.81;;;28.85;67.86
3796;BME280;1913;50.660;7.834;2023-08-24T12:01:10;155169.91;;;28.82;58.20
3796;BME280;1913;50.660;7.834;2023-08-24T12:03:37;155110.22;;;28.58;61.75
3796;BME280;1913;50.660;7.834;2023-08-24T12:09:46;155206.75;;;28.97;63.99
3796;BME280;1913;50.660;7.834;2023-08-24T12:12:19;155205.47;;;28.96;66.32
3796;BME280;1913;50.660;7.834;2023-08-24T12:14:49;155332.56;;;29.47;60.86
3796;BME280;1913;50.660;7.834;2023-08-24T12:17:17;155453.34;;;29.96;57.54
3796;BME280;1913;50.660;7.834;2023-08-24T12:19:57;155542.34;;;30.32;55.35
3796;BME280;1913;50.660;7.834;2023-08-24T12:22:26;155485.06;;;30.09;48.81
3796;BME280;1913;50.660;7.834;2023-08-24T12:24:55;155486.34;;;30.09;49.46
3796;BME280;1913;50.660;7.834;2023-08-24T12:27:25;155518.19;;;30.22;48.41
3796;BME280;1913;50.660;7.834;2023-08-24T12:30:00;155446.97;;;29.93;52.51
3796;BME280;1913;50.660;7.834;2023-08-24T12:32:45;155496.50;;;30.13;49.90
3796;BME280;1913;50.660;7.834;2023-08-24T12:35:13;155572.81;;;30.44;53.17
3796;BME280;1913;50.660;7.834;2023-08-24T12:37:43;155683.50;;;30.88;48.35
3796;BME280;1913;50.660;7.834;2023-08-24T12:40:08;155771.19;;;31.23;45.44
3796;BME280;1913;50.660;7.834;2023-08-24T12:42:34;155761.03;;;31.19;46.43
3796;BME280;1913;50.660;7.834;2023-08-24T12:45:07;155673.28;;;30.84;47.74
3796;BME280;1913;50.660;7.834;2023-08-24T12:47:33;155305.88;;;29.37;51.82
3796;BME280;1913;50.660;7.834;2023-08-24T12:50:07;155303.34;;;29.35;53.90
3796;BME280;1913;50.660;7.834;2023-08-24T12:52:32;155223.31;;;29.03;58.77
3796;BME280;1913;50.660;7.834;2023-08-24T12:54:59;155163.56;;;28.79;62.28
3796;BME280;1913;50.660;7.834;2023-08-24T12:57:24;155033.94;;;28.27;62.40
3796;BME280;1913;50.660;7.834;2023-08-24T12:59:50;154914.63;;;27.79;68.09
3796;BME280;1913;50.660;7.834;2023-08-24T13:02:17;154806.69;;;27.36;72.66
3796;BME280;1913;50.660;7.834;2023-08-24T13:04:42;154827.00;;;27.44;75.31
3796;BME280;1913;50.660;7.834;2023-08-24T13:07:08;154815.59;;;27.39;75.86
3796;BME280;1913;50.660;7.834;2023-08-24T13:09:34;154713.97;;;26.98;81.53
3796;BME280;1913;50.660;7.834;2023-08-24T13:12:02;154646.72;;;26.71;88.61
3796;BME280;1913;50.660;7.834;2023-08-24T13:14:28;154639.13;;;26.68;93.88
3796;BME280;1913;50.660;7.834;2023-08-24T13:16:54;154465.28;;;25.98;100.00